sensor_id;sensor_type;location;lat;lon;timestamp;temperature;humidity
70166;SHT30;57541;47.408;18.822;2022-12-17T00:00:59;1.94;98.35
70166;SHT30;57541;47.408;18.822;2022-12-17T00:01:50;1.92;98.14
70166;SHT30;57541;47.408;18.822;2022-12-17T00:02:40;1.96;98.37
70166;SHT30;57541;47.408;18.822;2022-12-17T00:03:31;1.99;98.08
70166;SHT30;57541;47.408;18.822;2022-12-17T00:04:22;2.00;98.17
70166;SHT30;57541;47.408;18.822;2022-12-17T00:05:12;2.00;98.20
70166;SHT30;57541;47.408;18.822;2022-12-17T00:06:02;2.06;97.97
70166;SHT30;57541;47.408;18.822;2022-12-17T00:06:52;2.03;97.73
70166;SHT30;57541;47.408;18.822;2022-12-17T00:07:42;2.00;97.69
70166;SHT30;57541;47.408;18.822;2022-12-17T00:08:33;1.92;97.77
70166;SHT30;57541;47.408;18.822;2022-12-17T00:09:23;1.92;97.89
70166;SHT30;57541;47.408;18.822;2022-12-17T00:10:20;1.89;98.19
70166;SHT30;57541;47.408;18.822;2022-12-17T00:11:10;1.83;98.28
70166;SHT30;57541;47.408;18.822;2022-12-17T00:12:00;1.89;98.12
70166;SHT30;57541;47.408;18.822;2022-12-17T00:12:51;1.82;97.97
70166;SHT30;57541;47.408;18.822;2022-12-17T00:13:40;1.79;98.01
70166;SHT30;57541;47.408;18.822;2022-12-17T00:14:31;1.77;98.25
70166;SHT30;57541;47.408;18.822;2022-12-17T00:15:21;1.79;98.29
70166;SHT30;57541;47.408;18.822;2022-12-17T00:16:11;1.79;98.46
70166;SHT30;57541;47.408;18.822;2022-12-17T00:17:01;1.73;98.43
70166;SHT30;57541;47.408;18.822;2022-12-17T00:17:51;1.77;98.41
70166;SHT30;57541;47.408;18.822;2022-12-17T00:18:41;1.80;98.39
70166;SHT30;57541;47.408;18.822;2022-12-17T00:19:31;1.76;98.28
70166;SHT30;57541;47.408;18.822;2022-12-17T00:20:22;1.70;97.99
70166;SHT30;57541;47.408;18.822;2022-12-17T00:21:12;1.74;98.18
70166;SHT30;57541;47.408;18.822;2022-12-17T00:22:01;1.73;98.20
70166;SHT30;57541;47.408;18.822;2022-12-17T00:23:03;1.70;97.94
70166;SHT30;57541;47.408;18.822;2022-12-17T00:23:53;1.62;98.15
70166;SHT30;57541;47.408;18.822;2022-12-17T00:24:43;1.65;98.08
70166;SHT30;57541;47.408;18.822;2022-12-17T00:25:33;1.69;98.40
70166;SHT30;57541;47.408;18.822;2022-12-17T00:26:25;1.66;98.25
70166;SHT30;57541;47.408;18.822;2022-12-17T00:27:15;1.65;97.89
70166;SHT30;57541;47.408;18.822;2022-12-17T00:28:11;1.66;97.84
70166;SHT30;57541;47.408;18.822;2022-12-17T00:29:01;1.66;98.20
70166;SHT30;57541;47.408;18.822;2022-12-17T00:29:58;1.67;97.97
70166;SHT30;57541;47.408;18.822;2022-12-17T00:30:51;1.65;97.66
70166;SHT30;57541;47.408;18.822;2022-12-17T00:31:41;1.67;97.71
70166;SHT30;57541;47.408;18.822;2022-12-17T00:32:31;1.60;97.80
70166;SHT30;57541;47.408;18.822;2022-12-17T00:33:21;1.60;97.65
70166;SHT30;57541;47.408;18.822;2022-12-17T00:34:11;1.55;98.01
70166;SHT30;57541;47.408;18.822;2022-12-17T00:35:02;1.59;97.70
70166;SHT30;57541;47.408;18.822;2022-12-17T00:35:52;1.63;97.47
70166;SHT30;57541;47.408;18.822;2022-12-17T00:36:42;1.60;97.46
70166;SHT30;57541;47.408;18.822;2022-12-17T00:37:40;1.63;97.62
70166;SHT30;57541;47.408;18.822;2022-12-17T00:38:30;1.73;97.92
70166;SHT30;57541;47.408;18.822;2022-12-17T00:39:20;1.69;97.71
70166;SHT30;57541;47.408;18.822;2022-12-17T00:40:10;1.60;97.55
70166;SHT30;57541;47.408;18.822;2022-12-17T00:41:01;1.70;97.78
70166;SHT30;57541;47.408;18.822;2022-12-17T00:41:52;1.69;97.81
70166;SHT30;57541;47.408;18.822;2022-12-17T00:42:42;1.58;97.65
70166;SHT30;57541;47.408;18.822;2022-12-17T00:43:31;1.58;97.58
70166;SHT30;57541;47.408;18.822;2022-12-17T00:44:22;1.56;97.94
70166;SHT30;57541;47.408;18.822;2022-12-17T00:45:12;1.62;97.94
70166;SHT30;57541;47.408;18.822;2022-12-17T00:46:12;1.53;98.01
70166;SHT30;57541;47.408;18.822;2022-12-17T00:47:03;1.53;98.03
70166;SHT30;57541;47.408;18.822;2022-12-17T00:47:53;1.49;98.16
70166;SHT30;57541;47.408;18.822;2022-12-17T00:48:44;1.48;98.31
70166;SHT30;57541;47.408;18.822;2022-12-17T00:49:34;1.56;98.22
70166;SHT30;57541;47.408;18.822;2022-12-17T00:50:26;1.60;97.79
70166;SHT30;57541;47.408;18.822;2022-12-17T00:51:17;1.51;98.08
70166;SHT30;57541;47.408;18.822;2022-12-17T00:52:06;1.53;98.18
70166;SHT30;57541;47.408;18.822;2022-12-17T00:52:56;1.53;98.27
70166;SHT30;57541;47.408;18.822;2022-12-17T00:53:46;1.53;97.97
70166;SHT30;57541;47.408;18.822;2022-12-17T00:54:36;1.58;98.26
70166;SHT30;57541;47.408;18.822;2022-12-17T00:55:27;1.55;97.87
70166;SHT30;57541;47.408;18.822;2022-12-17T00:56:17;1.62;97.92
70166;SHT30;57541;47.408;18.822;2022-12-17T00:57:07;1.52;97.88
70166;SHT30;57541;47.408;18.822;2022-12-17T00:57:56;1.48;98.04
70166;SHT30;57541;47.408;18.822;2022-12-17T00:58:46;1.59;98.01
70166;SHT30;57541;47.408;18.822;2022-12-17T00:59:36;1.56;98.20
70166;SHT30;57541;47.408;18.822;2022-12-17T01:00:26;1.59;98.05
70166;SHT30;57541;47.408;18.822;2022-12-17T01:01:17;1.55;97.90
70166;SHT30;57541;47.408;18.822;2022-12-17T01:02:07;1.63;97.86
70166;SHT30;57541;47.408;18.822;2022-12-17T01:03:09;1.67;97.68
70166;SHT30;57541;47.408;18.822;2022-12-17T01:03:59;1.69;97.59
70166;SHT30;57541;47.408;18.822;2022-12-17T01:04:49;1.70;97.32
70166;SHT30;57541;47.408;18.822;2022-12-17T01:05:40;1.72;97.40
70166;SHT30;57541;47.408;18.822;2022-12-17T01:06:30;1.69;97.33
70166;SHT30;57541;47.408;18.822;2022-12-17T01:07:20;1.67;97.54
70166;SHT30;57541;47.408;18.822;2022-12-17T01:08:12;1.69;97.53
70166;SHT30;57541;47.408;18.822;2022-12-17T01:09:02;1.76;97.12
70166;SHT30;57541;47.408;18.822;2022-12-17T01:09:52;1.62;97.30
70166;SHT30;57541;47.408;18.822;2022-12-17T01:10:42;1.73;97.77
70166;SHT30;57541;47.408;18.822;2022-12-17T01:11:32;1.76;97.00
70166;SHT30;57541;47.408;18.822;2022-12-17T01:12:26;1.73;96.81
70166;SHT30;57541;47.408;18.822;2022-12-17T01:13:17;1.70;97.32
70166;SHT30;57541;47.408;18.822;2022-12-17T01:14:08;1.72;97.20
70166;SHT30;57541;47.408;18.822;2022-12-17T01:14:58;1.66;97.36
70166;SHT30;57541;47.408;18.822;2022-12-17T01:15:48;1.72;97.45
70166;SHT30;57541;47.408;18.822;2022-12-17T01:16:38;1.66;97.36
70166;SHT30;57541;47.408;18.822;2022-12-17T01:17:28;1.67;97.43
70166;SHT30;57541;47.408;18.822;2022-12-17T01:18:18;1.66;97.66
70166;SHT30;57541;47.408;18.822;2022-12-17T01:19:09;1.72;97.30
70166;SHT30;57541;47.408;18.822;2022-12-17T01:19:59;1.73;96.93
70166;SHT30;57541;47.408;18.822;2022-12-17T01:20:55;1.72;96.94
70166;SHT30;57541;47.408;18.822;2022-12-17T01:21:45;1.67;97.24
70166;SHT30;57541;47.408;18.822;2022-12-17T01:22:36;1.74;97.19
70166;SHT30;57541;47.408;18.822;2022-12-17T01:23:26;1.73;97.35
70166;SHT30;57541;47.408;18.822;2022-12-17T01:24:16;1.73;97.13
70166;SHT30;57541;47.408;18.822;2022-12-17T01:25:06;1.69;96.96
70166;SHT30;57541;47.408;18.822;2022-12-17T01:25:57;1.80;97.06
70166;SHT30;57541;47.408;18.822;2022-12-17T01:26:47;1.72;96.84
70166;SHT30;57541;47.408;18.822;2022-12-17T01:27:37;1.69;97.21
70166;SHT30;57541;47.408;18.822;2022-12-17T01:28:27;1.73;97.27
70166;SHT30;57541;47.408;18.822;2022-12-17T01:29:17;1.73;97.17
70166;SHT30;57541;47.408;18.822;2022-12-17T01:30:18;1.82;97.26
70166;SHT30;57541;47.408;18.822;2022-12-17T01:31:09;1.77;96.96
70166;SHT30;57541;47.408;18.822;2022-12-17T01:32:05;1.80;96.90
70166;SHT30;57541;47.408;18.822;2022-12-17T01:33:00;1.76;96.90
70166;SHT30;57541;47.408;18.822;2022-12-17T01:33:51;1.63;97.15
70166;SHT30;57541;47.408;18.822;2022-12-17T01:34:41;1.69;97.39
70166;SHT30;57541;47.408;18.822;2022-12-17T01:35:32;1.73;97.35
70166;SHT30;57541;47.408;18.822;2022-12-17T01:36:22;1.63;97.21
70166;SHT30;57541;47.408;18.822;2022-12-17T01:37:11;1.65;97.60
70166;SHT30;57541;47.408;18.822;2022-12-17T01:38:02;1.59;97.53
70166;SHT30;57541;47.408;18.822;2022-12-17T01:38:52;1.55;97.61
70166;SHT30;57541;47.408;18.822;2022-12-17T01:39:42;1.56;97.55
70166;SHT30;57541;47.408;18.822;2022-12-17T01:40:32;1.51;97.57
70166;SHT30;57541;47.408;18.822;2022-12-17T01:41:22;1.58;97.52
70166;SHT30;57541;47.408;18.822;2022-12-17T01:42:12;1.65;97.23
70166;SHT30;57541;47.408;18.822;2022-12-17T01:43:09;1.70;97.51
70166;SHT30;57541;47.408;18.822;2022-12-17T01:45:37;1.76;97.21
70166;SHT30;57541;47.408;18.822;2022-12-17T01:46:35;1.74;96.92
70166;SHT30;57541;47.408;18.822;2022-12-17T01:47:27;1.80;97.09
70166;SHT30;57541;47.408;18.822;2022-12-17T01:48:23;1.70;97.54
70166;SHT30;57541;47.408;18.822;2022-12-17T01:49:20;1.72;97.09
70166;SHT30;57541;47.408;18.822;2022-12-17T01:50:12;1.66;97.30
70166;SHT30;57541;47.408;18.822;2022-12-17T01:51:03;1.73;97.26
70166;SHT30;57541;47.408;18.822;2022-12-17T01:51:54;1.70;97.27
70166;SHT30;57541;47.408;18.822;2022-12-17T01:52:45;1.65;98.11
70166;SHT30;57541;47.408;18.822;2022-12-17T01:53:46;1.60;98.15
70166;SHT30;57541;47.408;18.822;2022-12-17T01:54:38;1.60;98.42
70166;SHT30;57541;47.408;18.822;2022-12-17T01:55:46;1.67;97.67
70166;SHT30;57541;47.408;18.822;2022-12-17T01:56:40;1.73;98.09
70166;SHT30;57541;47.408;18.822;2022-12-17T01:57:31;1.69;97.48
70166;SHT30;57541;47.408;18.822;2022-12-17T01:58:21;1.72;97.58
70166;SHT30;57541;47.408;18.822;2022-12-17T01:59:12;1.69;97.62
70166;SHT30;57541;47.408;18.822;2022-12-17T02:00:06;1.72;97.76
70166;SHT30;57541;47.408;18.822;2022-12-17T02:01:03;1.72;97.49
70166;SHT30;57541;47.408;18.822;2022-12-17T02:01:54;1.76;97.36
70166;SHT30;57541;47.408;18.822;2022-12-17T02:02:44;1.74;97.41
70166;SHT30;57541;47.408;18.822;2022-12-17T02:03:35;1.72;97.50
70166;SHT30;57541;47.408;18.822;2022-12-17T02:04:25;1.74;97.39
70166;SHT30;57541;47.408;18.822;2022-12-17T02:05:17;1.82;97.14
70166;SHT30;57541;47.408;18.822;2022-12-17T02:06:16;1.86;97.37
70166;SHT30;57541;47.408;18.822;2022-12-17T02:08:27;1.82;96.67
70166;SHT30;57541;47.408;18.822;2022-12-17T02:09:32;1.77;97.29
70166;SHT30;57541;47.408;18.822;2022-12-17T02:10:30;1.83;97.52
70166;SHT30;57541;47.408;18.822;2022-12-17T02:11:59;1.92;97.42
70166;SHT30;57541;47.408;18.822;2022-12-17T02:12:54;1.99;97.51
70166;SHT30;57541;47.408;18.822;2022-12-17T02:14:00;1.89;97.21
70166;SHT30;57541;47.408;18.822;2022-12-17T02:15:57;1.84;97.24
70166;SHT30;57541;47.408;18.822;2022-12-17T02:16:54;1.80;97.25
70166;SHT30;57541;47.408;18.822;2022-12-17T02:17:52;1.87;96.87
70166;SHT30;57541;47.408;18.822;2022-12-17T02:18:49;1.66;97.01
70166;SHT30;57541;47.408;18.822;2022-12-17T02:20:47;1.74;97.80
70166;SHT30;57541;47.408;18.822;2022-12-17T02:21:38;1.74;97.26
70166;SHT30;57541;47.408;18.822;2022-12-17T02:24:05;1.65;97.13
70166;SHT30;57541;47.408;18.822;2022-12-17T02:25:22;1.55;97.93
70166;SHT30;57541;47.408;18.822;2022-12-17T02:27:16;1.67;97.74
70166;SHT30;57541;47.408;18.822;2022-12-17T02:28:06;1.67;97.59
70166;SHT30;57541;47.408;18.822;2022-12-17T02:28:58;1.63;97.92
70166;SHT30;57541;47.408;18.822;2022-12-17T02:29:53;1.60;97.76
70166;SHT30;57541;47.408;18.822;2022-12-17T02:30:44;1.62;97.85
70166;SHT30;57541;47.408;18.822;2022-12-17T02:31:40;1.51;98.11
70166;SHT30;57541;47.408;18.822;2022-12-17T02:32:32;1.49;98.07
70166;SHT30;57541;47.408;18.822;2022-12-17T02:33:23;1.46;98.54
70166;SHT30;57541;47.408;18.822;2022-12-17T02:34:13;1.43;98.13
70166;SHT30;57541;47.408;18.822;2022-12-17T02:35:11;1.46;97.71
70166;SHT30;57541;47.408;18.822;2022-12-17T02:36:05;1.42;97.74
70166;SHT30;57541;47.408;18.822;2022-12-17T02:36:55;1.45;97.60
70166;SHT30;57541;47.408;18.822;2022-12-17T02:37:48;1.41;97.65
70166;SHT30;57541;47.408;18.822;2022-12-17T02:38:39;1.45;97.54
70166;SHT30;57541;47.408;18.822;2022-12-17T02:39:29;1.45;97.29
70166;SHT30;57541;47.408;18.822;2022-12-17T02:40:20;1.46;97.55
70166;SHT30;57541;47.408;18.822;2022-12-17T02:41:18;1.52;97.51
70166;SHT30;57541;47.408;18.822;2022-12-17T02:42:11;1.48;97.24
70166;SHT30;57541;47.408;18.822;2022-12-17T02:43:11;1.55;97.14
70166;SHT30;57541;47.408;18.822;2022-12-17T02:44:02;1.56;97.23
70166;SHT30;57541;47.408;18.822;2022-12-17T02:44:53;1.58;97.30
70166;SHT30;57541;47.408;18.822;2022-12-17T02:45:45;1.58;97.17
70166;SHT30;57541;47.408;18.822;2022-12-17T02:46:37;1.59;96.93
70166;SHT30;57541;47.408;18.822;2022-12-17T02:47:28;1.59;96.81
70166;SHT30;57541;47.408;18.822;2022-12-17T02:48:19;1.58;96.83
70166;SHT30;57541;47.408;18.822;2022-12-17T02:49:09;1.51;96.51
70166;SHT30;57541;47.408;18.822;2022-12-17T02:49:59;1.56;96.51
70166;SHT30;57541;47.408;18.822;2022-12-17T02:50:49;1.62;95.99
70166;SHT30;57541;47.408;18.822;2022-12-17T02:51:40;1.74;96.35
70166;SHT30;57541;47.408;18.822;2022-12-17T02:52:32;1.67;96.38
70166;SHT30;57541;47.408;18.822;2022-12-17T02:53:24;1.55;96.24
70166;SHT30;57541;47.408;18.822;2022-12-17T02:54:14;1.62;96.72
70166;SHT30;57541;47.408;18.822;2022-12-17T02:55:05;1.60;96.14
70166;SHT30;57541;47.408;18.822;2022-12-17T02:55:55;1.55;96.33
70166;SHT30;57541;47.408;18.822;2022-12-17T02:56:45;1.62;96.37
70166;SHT30;57541;47.408;18.822;2022-12-17T02:57:35;1.62;96.25
70166;SHT30;57541;47.408;18.822;2022-12-17T02:58:25;1.55;96.06
70166;SHT30;57541;47.408;18.822;2022-12-17T02:59:15;1.51;96.33
70166;SHT30;57541;47.408;18.822;2022-12-17T03:00:06;1.63;95.78
70166;SHT30;57541;47.408;18.822;2022-12-17T03:00:56;1.56;95.85
70166;SHT30;57541;47.408;18.822;2022-12-17T03:01:47;1.55;96.14
70166;SHT30;57541;47.408;18.822;2022-12-17T03:02:37;1.53;95.67
70166;SHT30;57541;47.408;18.822;2022-12-17T03:03:27;1.49;96.00
70166;SHT30;57541;47.408;18.822;2022-12-17T03:04:20;1.43;95.94
70166;SHT30;57541;47.408;18.822;2022-12-17T03:05:11;1.34;96.02
70166;SHT30;57541;47.408;18.822;2022-12-17T03:06:16;1.48;96.33
70166;SHT30;57541;47.408;18.822;2022-12-17T03:07:06;1.51;95.85
70166;SHT30;57541;47.408;18.822;2022-12-17T03:07:56;1.46;95.71
70166;SHT30;57541;47.408;18.822;2022-12-17T03:08:46;1.39;95.72
70166;SHT30;57541;47.408;18.822;2022-12-17T03:09:37;1.48;95.84
70166;SHT30;57541;47.408;18.822;2022-12-17T03:10:27;1.46;95.63
70166;SHT30;57541;47.408;18.822;2022-12-17T03:11:18;1.42;95.79
70166;SHT30;57541;47.408;18.822;2022-12-17T03:12:08;1.45;95.47
70166;SHT30;57541;47.408;18.822;2022-12-17T03:12:58;1.34;95.66
70166;SHT30;57541;47.408;18.822;2022-12-17T03:13:48;1.32;95.39
70166;SHT30;57541;47.408;18.822;2022-12-17T03:14:38;1.31;96.17
70166;SHT30;57541;47.408;18.822;2022-12-17T03:15:28;1.25;95.95
70166;SHT30;57541;47.408;18.822;2022-12-17T03:16:18;1.18;96.33
70166;SHT30;57541;47.408;18.822;2022-12-17T03:17:08;1.21;96.45
70166;SHT30;57541;47.408;18.822;2022-12-17T03:17:59;1.18;96.14
70166;SHT30;57541;47.408;18.822;2022-12-17T03:18:49;1.17;95.94
70166;SHT30;57541;47.408;18.822;2022-12-17T03:19:40;1.20;95.75
70166;SHT30;57541;47.408;18.822;2022-12-17T03:20:30;1.13;95.96
70166;SHT30;57541;47.408;18.822;2022-12-17T03:21:20;1.14;95.89
70166;SHT30;57541;47.408;18.822;2022-12-17T03:22:10;1.09;96.13
70166;SHT30;57541;47.408;18.822;2022-12-17T03:23:05;1.13;95.96
70166;SHT30;57541;47.408;18.822;2022-12-17T03:23:56;1.13;96.51
70166;SHT30;57541;47.408;18.822;2022-12-17T03:24:46;1.14;96.25
70166;SHT30;57541;47.408;18.822;2022-12-17T03:25:42;1.07;95.85
70166;SHT30;57541;47.408;18.822;2022-12-17T03:26:32;1.08;96.18
70166;SHT30;57541;47.408;18.822;2022-12-17T03:27:22;1.01;96.50
70166;SHT30;57541;47.408;18.822;2022-12-17T03:28:12;1.05;96.17
70166;SHT30;57541;47.408;18.822;2022-12-17T03:29:02;1.08;95.91
70166;SHT30;57541;47.408;18.822;2022-12-17T03:29:53;1.03;96.21
70166;SHT30;57541;47.408;18.822;2022-12-17T03:30:43;1.04;96.65
70166;SHT30;57541;47.408;18.822;2022-12-17T03:31:33;1.05;96.05
70166;SHT30;57541;47.408;18.822;2022-12-17T03:32:24;1.07;95.85
70166;SHT30;57541;47.408;18.822;2022-12-17T03:33:22;1.01;96.14
70166;SHT30;57541;47.408;18.822;2022-12-17T03:34:12;1.00;96.60
70166;SHT30;57541;47.408;18.822;2022-12-17T03:35:02;1.01;96.51
70166;SHT30;57541;47.408;18.822;2022-12-17T03:35:53;1.05;95.83
70166;SHT30;57541;47.408;18.822;2022-12-17T03:36:43;1.01;95.63
70166;SHT30;57541;47.408;18.822;2022-12-17T03:37:33;1.01;95.70
70166;SHT30;57541;47.408;18.822;2022-12-17T03:38:24;0.95;95.66
70166;SHT30;57541;47.408;18.822;2022-12-17T03:39:13;0.97;95.56
70166;SHT30;57541;47.408;18.822;2022-12-17T03:40:04;0.91;95.19
70166;SHT30;57541;47.408;18.822;2022-12-17T03:40:55;0.90;94.76
70166;SHT30;57541;47.408;18.822;2022-12-17T03:41:46;0.83;95.13
70166;SHT30;57541;47.408;18.822;2022-12-17T03:42:35;0.74;95.16
70166;SHT30;57541;47.408;18.822;2022-12-17T03:43:25;0.70;95.35
70166;SHT30;57541;47.408;18.822;2022-12-17T03:44:15;0.73;95.46
70166;SHT30;57541;47.408;18.822;2022-12-17T03:45:06;0.70;95.20
70166;SHT30;57541;47.408;18.822;2022-12-17T03:45:56;0.62;95.31
70166;SHT30;57541;47.408;18.822;2022-12-17T03:46:47;0.56;95.31
70166;SHT30;57541;47.408;18.822;2022-12-17T03:47:37;0.62;95.49
70166;SHT30;57541;47.408;18.822;2022-12-17T03:48:26;0.67;95.44
70166;SHT30;57541;47.408;18.822;2022-12-17T03:49:16;0.60;95.24
70166;SHT30;57541;47.408;18.822;2022-12-17T03:50:07;0.53;95.20
70166;SHT30;57541;47.408;18.822;2022-12-17T03:51:00;0.52;95.25
70166;SHT30;57541;47.408;18.822;2022-12-17T03:51:50;0.49;94.88
70166;SHT30;57541;47.408;18.822;2022-12-17T03:52:40;0.49;95.22
70166;SHT30;57541;47.408;18.822;2022-12-17T03:53:31;0.46;94.99
70166;SHT30;57541;47.408;18.822;2022-12-17T03:54:21;0.43;95.19
70166;SHT30;57541;47.408;18.822;2022-12-17T03:55:11;0.46;95.03
70166;SHT30;57541;47.408;18.822;2022-12-17T03:56:01;0.42;94.94
70166;SHT30;57541;47.408;18.822;2022-12-17T03:56:51;0.42;95.09
70166;SHT30;57541;47.408;18.822;2022-12-17T03:57:46;0.46;95.06
70166;SHT30;57541;47.408;18.822;2022-12-17T03:58:36;0.41;95.21
70166;SHT30;57541;47.408;18.822;2022-12-17T03:59:26;0.39;95.23
70166;SHT30;57541;47.408;18.822;2022-12-17T04:00:20;0.43;95.24
70166;SHT30;57541;47.408;18.822;2022-12-17T04:01:10;0.41;95.17
70166;SHT30;57541;47.408;18.822;2022-12-17T04:02:00;0.48;94.81
70166;SHT30;57541;47.408;18.822;2022-12-17T04:02:51;0.52;94.77
70166;SHT30;57541;47.408;18.822;2022-12-17T04:03:42;0.45;95.10
70166;SHT30;57541;47.408;18.822;2022-12-17T04:04:32;0.43;95.36
70166;SHT30;57541;47.408;18.822;2022-12-17T04:05:22;0.53;94.87
70166;SHT30;57541;47.408;18.822;2022-12-17T04:06:12;0.52;94.98
70166;SHT30;57541;47.408;18.822;2022-12-17T04:07:02;0.49;95.05
70166;SHT30;57541;47.408;18.822;2022-12-17T04:07:52;0.50;95.05
70166;SHT30;57541;47.408;18.822;2022-12-17T04:08:42;0.43;95.04
70166;SHT30;57541;47.408;18.822;2022-12-17T04:09:33;0.48;95.09
70166;SHT30;57541;47.408;18.822;2022-12-17T04:10:23;0.49;94.76
70166;SHT30;57541;47.408;18.822;2022-12-17T04:11:13;0.49;94.33
70166;SHT30;57541;47.408;18.822;2022-12-17T04:12:03;0.41;94.40
70166;SHT30;57541;47.408;18.822;2022-12-17T04:12:54;0.39;94.51
70166;SHT30;57541;47.408;18.822;2022-12-17T04:13:44;0.39;94.06
70166;SHT30;57541;47.408;18.822;2022-12-17T04:14:34;0.36;94.32
70166;SHT30;57541;47.408;18.822;2022-12-17T04:15:24;0.29;94.31
70166;SHT30;57541;47.408;18.822;2022-12-17T04:16:14;0.32;94.30
70166;SHT30;57541;47.408;18.822;2022-12-17T04:17:05;0.33;94.29
70166;SHT30;57541;47.408;18.822;2022-12-17T04:17:55;0.32;94.37
70166;SHT30;57541;47.408;18.822;2022-12-17T04:18:45;0.35;94.24
70166;SHT30;57541;47.408;18.822;2022-12-17T04:19:35;0.32;94.05
70166;SHT30;57541;47.408;18.822;2022-12-17T04:20:25;0.36;94.16
70166;SHT30;57541;47.408;18.822;2022-12-17T04:21:15;0.43;94.45
70166;SHT30;57541;47.408;18.822;2022-12-17T04:22:05;0.33;94.41
70166;SHT30;57541;47.408;18.822;2022-12-17T04:22:55;0.33;94.36
70166;SHT30;57541;47.408;18.822;2022-12-17T04:23:50;0.41;94.53
70166;SHT30;57541;47.408;18.822;2022-12-17T04:24:40;0.39;93.92
70166;SHT30;57541;47.408;18.822;2022-12-17T04:25:30;0.33;94.11
70166;SHT30;57541;47.408;18.822;2022-12-17T04:26:25;0.32;93.76
70166;SHT30;57541;47.408;18.822;2022-12-17T04:27:15;0.33;93.94
70166;SHT30;57541;47.408;18.822;2022-12-17T04:28:04;0.35;94.25
70166;SHT30;57541;47.408;18.822;2022-12-17T04:28:54;0.29;94.10
70166;SHT30;57541;47.408;18.822;2022-12-17T04:29:44;0.30;94.09
70166;SHT30;57541;47.408;18.822;2022-12-17T04:30:34;0.32;94.00
70166;SHT30;57541;47.408;18.822;2022-12-17T04:31:24;0.32;94.53
70166;SHT30;57541;47.408;18.822;2022-12-17T04:32:14;0.28;94.38
70166;SHT30;57541;47.408;18.822;2022-12-17T04:33:06;0.28;94.40
70166;SHT30;57541;47.408;18.822;2022-12-17T04:33:56;0.32;94.74
70166;SHT30;57541;47.408;18.822;2022-12-17T04:34:46;0.35;94.49
70166;SHT30;57541;47.408;18.822;2022-12-17T04:35:36;0.32;94.29
70166;SHT30;57541;47.408;18.822;2022-12-17T04:36:26;0.29;94.62
70166;SHT30;57541;47.408;18.822;2022-12-17T04:37:15;0.28;94.38
70166;SHT30;57541;47.408;18.822;2022-12-17T04:38:06;0.26;94.73
70166;SHT30;57541;47.408;18.822;2022-12-17T04:38:56;0.28;94.58
70166;SHT30;57541;47.408;18.822;2022-12-17T04:39:45;0.32;94.25
70166;SHT30;57541;47.408;18.822;2022-12-17T04:40:36;0.30;94.68
70166;SHT30;57541;47.408;18.822;2022-12-17T04:41:27;0.33;94.39
70166;SHT30;57541;47.408;18.822;2022-12-17T04:42:17;0.29;94.38
70166;SHT30;57541;47.408;18.822;2022-12-17T04:43:09;0.26;94.40
70166;SHT30;57541;47.408;18.822;2022-12-17T04:43:59;0.29;94.09
70166;SHT30;57541;47.408;18.822;2022-12-17T04:44:50;0.30;93.93
70166;SHT30;57541;47.408;18.822;2022-12-17T04:45:40;0.29;94.10
70166;SHT30;57541;47.408;18.822;2022-12-17T04:46:30;0.28;94.05
70166;SHT30;57541;47.408;18.822;2022-12-17T04:47:20;0.26;94.33
70166;SHT30;57541;47.408;18.822;2022-12-17T04:48:10;0.29;94.38
70166;SHT30;57541;47.408;18.822;2022-12-17T04:49:00;0.29;94.12
70166;SHT30;57541;47.408;18.822;2022-12-17T04:49:50;0.30;94.18
70166;SHT30;57541;47.408;18.822;2022-12-17T04:50:40;0.35;94.34
70166;SHT30;57541;47.408;18.822;2022-12-17T04:51:30;0.36;94.15
70166;SHT30;57541;47.408;18.822;2022-12-17T04:52:20;0.45;94.30
70166;SHT30;57541;47.408;18.822;2022-12-17T04:53:10;0.43;94.13
70166;SHT30;57541;47.408;18.822;2022-12-17T04:54:00;0.36;93.78
70166;SHT30;57541;47.408;18.822;2022-12-17T04:54:50;0.35;93.70
70166;SHT30;57541;47.408;18.822;2022-12-17T04:55:40;0.29;93.90
70166;SHT30;57541;47.408;18.822;2022-12-17T04:56:30;0.26;93.97
70166;SHT30;57541;47.408;18.822;2022-12-17T04:57:20;0.26;93.74
70166;SHT30;57541;47.408;18.822;2022-12-17T04:58:10;0.26;94.25
70166;SHT30;57541;47.408;18.822;2022-12-17T04:59:00;0.30;94.07
70166;SHT30;57541;47.408;18.822;2022-12-17T04:59:50;0.28;93.94
70166;SHT30;57541;47.408;18.822;2022-12-17T05:00:42;0.30;94.02
70166;SHT30;57541;47.408;18.822;2022-12-17T05:01:32;0.35;93.55
70166;SHT30;57541;47.408;18.822;2022-12-17T05:02:22;0.26;93.75
70166;SHT30;57541;47.408;18.822;2022-12-17T05:03:15;0.26;93.88
70166;SHT30;57541;47.408;18.822;2022-12-17T05:04:06;0.28;93.65
70166;SHT30;57541;47.408;18.822;2022-12-17T05:04:56;0.28;93.26
70166;SHT30;57541;47.408;18.822;2022-12-17T05:05:46;0.19;93.37
70166;SHT30;57541;47.408;18.822;2022-12-17T05:06:36;0.19;93.74
70166;SHT30;57541;47.408;18.822;2022-12-17T05:07:26;0.19;93.30
70166;SHT30;57541;47.408;18.822;2022-12-17T05:08:16;0.19;93.15
70166;SHT30;57541;47.408;18.822;2022-12-17T05:09:11;0.21;93.03
70166;SHT30;57541;47.408;18.822;2022-12-17T05:10:02;0.22;93.40
70166;SHT30;57541;47.408;18.822;2022-12-17T05:10:52;0.19;93.79
70166;SHT30;57541;47.408;18.822;2022-12-17T05:11:42;0.16;93.67
70166;SHT30;57541;47.408;18.822;2022-12-17T05:12:32;0.15;93.60
70166;SHT30;57541;47.408;18.822;2022-12-17T05:13:22;0.12;93.24
70166;SHT30;57541;47.408;18.822;2022-12-17T05:14:13;0.14;93.33
70166;SHT30;57541;47.408;18.822;2022-12-17T05:15:03;0.16;93.55
70166;SHT30;57541;47.408;18.822;2022-12-17T05:15:55;0.21;93.11
70166;SHT30;57541;47.408;18.822;2022-12-17T05:16:45;0.16;92.93
70166;SHT30;57541;47.408;18.822;2022-12-17T05:17:35;0.11;92.45
70166;SHT30;57541;47.408;18.822;2022-12-17T05:18:25;0.09;92.68
70166;SHT30;57541;47.408;18.822;2022-12-17T05:19:15;0.06;92.86
70166;SHT30;57541;47.408;18.822;2022-12-17T05:20:06;0.06;93.01
70166;SHT30;57541;47.408;18.822;2022-12-17T05:20:56;0.08;92.68
70166;SHT30;57541;47.408;18.822;2022-12-17T05:21:46;0.06;92.45
70166;SHT30;57541;47.408;18.822;2022-12-17T05:22:36;0.08;92.27
70166;SHT30;57541;47.408;18.822;2022-12-17T05:23:26;0.08;92.41
70166;SHT30;57541;47.408;18.822;2022-12-17T05:24:16;0.05;92.75
70166;SHT30;57541;47.408;18.822;2022-12-17T05:25:06;-0.01;92.76
70166;SHT30;57541;47.408;18.822;2022-12-17T05:26:18;0.05;92.59
70166;SHT30;57541;47.408;18.822;2022-12-17T05:27:08;0.08;92.64
70166;SHT30;57541;47.408;18.822;2022-12-17T05:27:58;0.04;92.75
70166;SHT30;57541;47.408;18.822;2022-12-17T05:28:49;-0.02;92.27
70166;SHT30;57541;47.408;18.822;2022-12-17T05:29:46;-0.02;92.22
70166;SHT30;57541;47.408;18.822;2022-12-17T05:30:37;-0.05;92.35
70166;SHT30;57541;47.408;18.822;2022-12-17T05:31:27;0.01;92.72
70166;SHT30;57541;47.408;18.822;2022-12-17T05:32:17;0.02;92.96
70166;SHT30;57541;47.408;18.822;2022-12-17T05:33:07;-0.02;93.11